createdAt,value
2022-12-17T00:05:14.426Z,78.70
2022-12-17T00:10:34.435Z,81.57
2022-12-17T00:15:53.187Z,80.55
2022-12-17T00:21:21.484Z,84.22
2022-12-17T00:26:41.361Z,91.40
2022-12-17T00:31:59.681Z,82.53
2022-12-17T00:37:18.332Z,80.70
2022-12-17T00:42:38.035Z,79.50
2022-12-17T00:47:56.220Z,84.00
2022-12-17T00:53:14.274Z,78.15
2022-12-17T00:58:33.851Z,80.72
2022-12-17T01:03:52.070Z,86.00
2022-12-17T01:09:10.310Z,82.80
2022-12-17T01:14:29.820Z,86.22
2022-12-17T01:19:53.539Z,83.13
2022-12-17T01:25:14.847Z,84.63
2022-12-17T01:30:34.653Z,92.25
2022-12-17T01:35:52.908Z,85.13
2022-12-17T01:41:16.947Z,82.78
2022-12-17T01:46:37.004Z,89.68
2022-12-17T01:51:55.514Z,98.55
2022-12-17T01:57:16.768Z,89.93
2022-12-17T02:02:36.623Z,86.38
2022-12-17T02:08:11.211Z,89.65
2022-12-17T02:13:37.252Z,89.75
2022-12-17T02:19:03.722Z,89.03
2022-12-17T02:24:30.855Z,82.57
2022-12-17T02:30:10.817Z,89.47
2022-12-17T02:35:34.972Z,90.03
2022-12-17T02:40:54.762Z,89.35
2022-12-17T02:46:17.074Z,87.90
2022-12-17T02:51:36.271Z,93.43
2022-12-17T02:56:54.443Z,88.72
2022-12-17T03:02:14.263Z,81.57
2022-12-17T03:07:32.504Z,89.50
2022-12-17T03:12:50.781Z,99.53
2022-12-17T03:18:10.248Z,95.70
2022-12-17T03:23:30.291Z,94.25
2022-12-17T03:28:48.699Z,89.95
2022-12-17T03:34:08.476Z,89.15
2022-12-17T03:39:26.906Z,99.85
2022-12-17T03:44:45.019Z,102.07
2022-12-17T03:50:13.057Z,94.80
2022-12-17T03:55:31.637Z,98.00
2022-12-17T04:00:49.961Z,93.47
2022-12-17T04:06:09.368Z,83.90
2022-12-17T04:11:24.074Z,98.90
2022-12-17T04:16:42.632Z,93.63
2022-12-17T04:22:02.267Z,98.35
2022-12-17T04:27:19.959Z,92.22
2022-12-17T04:32:38.214Z,89.47
2022-12-17T04:37:57.741Z,93.00
2022-12-17T04:43:16.223Z,88.35
2022-12-17T04:48:34.504Z,96.20
2022-12-17T04:53:54.424Z,101.22
2022-12-17T04:59:12.580Z,97.82
2022-12-17T05:04:30.636Z,89.88
2022-12-17T05:09:50.414Z,97.47
2022-12-17T05:15:08.462Z,93.95
2022-12-17T05:20:27.843Z,105.50
2022-12-17T05:25:47.240Z,101.88
2022-12-17T05:31:10.546Z,101.63
2022-12-17T05:36:31.681Z,110.32
2022-12-17T05:41:51.879Z,102.35
2022-12-17T05:47:09.896Z,96.65
2022-12-17T05:52:28.534Z,92.40
2022-12-17T05:57:53.093Z,95.25
2022-12-17T06:03:18.549Z,113.70
2022-12-17T06:08:51.529Z,93.20
2022-12-17T06:14:10.926Z,103.35
2022-12-17T06:19:29.384Z,95.35
2022-12-17T06:24:47.915Z,108.43
2022-12-17T06:30:07.317Z,94.50
2022-12-17T06:35:26.672Z,93.25
2022-12-17T06:40:45.067Z,96.90
2022-12-17T06:46:04.851Z,104.30
2022-12-17T06:51:23.448Z,98.85
2022-12-17T06:56:42.939Z,105.38
2022-12-17T07:02:02.804Z,95.18
2022-12-17T07:07:21.425Z,93.10
2022-12-17T07:12:39.677Z,102.60
2022-12-17T07:17:59.514Z,102.72
2022-12-17T07:23:17.608Z,102.22
2022-12-17T07:28:36.076Z,100.10
2022-12-17T07:33:55.555Z,106.40
2022-12-17T07:39:15.585Z,97.95
2022-12-17T07:44:33.675Z,100.85
2022-12-17T07:49:54.013Z,97.95
2022-12-17T07:55:17.973Z,93.45
2022-12-17T08:00:36.532Z,95.63
2022-12-17T08:05:55.941Z,96.40
2022-12-17T08:11:14.836Z,97.53
2022-12-17T08:16:33.383Z,109.30
2022-12-17T08:21:52.998Z,105.95
2022-12-17T08:27:11.405Z,101.70
2022-12-17T08:32:29.855Z,115.35
2022-12-17T08:37:50.101Z,113.03
2022-12-17T08:43:15.510Z,123.32
2022-12-17T08:48:35.271Z,126.03
2022-12-17T08:53:54.700Z,133.57
2022-12-17T08:59:12.853Z,140.23
2022-12-17T09:04:31.290Z,149.85
2022-12-17T09:09:51.482Z,161.27
2022-12-17T09:15:09.890Z,168.20
2022-12-17T09:20:29.645Z,158.55
2022-12-17T09:25:53.691Z,161.57
2022-12-17T09:31:18.085Z,163.40
2022-12-17T09:36:36.369Z,159.93
2022-12-17T09:42:06.712Z,140.60
2022-12-17T09:47:45.448Z,161.23
2022-12-17T09:53:03.927Z,146.80
2022-12-17T09:58:24.666Z,147.13
2022-12-17T10:03:43.070Z,146.02
2022-12-17T10:09:02.748Z,108.38
2022-12-17T10:14:29.030Z,126.15
2022-12-17T10:19:50.239Z,101.75
2022-12-17T10:25:08.428Z,102.65
2022-12-17T10:30:36.973Z,102.55
2022-12-17T10:35:56.371Z,96.70
2022-12-17T10:41:14.663Z,99.93
2022-12-17T10:46:45.315Z,113.72
2022-12-17T10:52:03.684Z,116.85
2022-12-17T10:57:24.537Z,113.00
2022-12-17T11:02:47.084Z,132.98
2022-12-17T11:08:06.340Z,120.90
2022-12-17T11:13:30.944Z,129.00
2022-12-17T11:18:58.928Z,133.13
2022-12-17T11:24:22.671Z,126.65
2022-12-17T11:29:41.281Z,135.73
2022-12-17T11:35:19.059Z,136.93
2022-12-17T11:40:44.932Z,131.80
2022-12-17T11:46:17.977Z,147.38
2022-12-17T11:51:47.542Z,131.68
2022-12-17T11:57:08.952Z,139.55
2022-12-17T12:02:43.424Z,146.05
2022-12-17T12:08:13.365Z,141.85
2022-12-17T12:13:40.844Z,155.35
2022-12-17T12:19:09.616Z,136.00
2022-12-17T12:24:44.903Z,130.85
2022-12-17T12:30:11.757Z,117.63
2022-12-17T12:35:34.905Z,119.80
2022-12-17T12:41:02.972Z,117.55
2022-12-17T12:46:25.594Z,117.18
2022-12-17T12:51:46.731Z,99.75
2022-12-17T12:57:06.539Z,97.20
2022-12-17T13:02:37.890Z,94.85
2022-12-17T13:07:38.843Z,95.82
2022-12-17T13:12:47.267Z,98.32
2022-12-17T13:17:59.034Z,88.03
2022-12-17T13:23:18.116Z,80.28
2022-12-17T13:28:31.735Z,80.93
2022-12-17T13:33:41.093Z,87.20
2022-12-17T13:38:50.627Z,73.80
2022-12-17T13:43:56.898Z,76.05
2022-12-17T13:49:00.620Z,82.60
2022-12-17T13:54:03.578Z,66.38
2022-12-17T13:59:09.527Z,64.32
2022-12-17T14:04:21.493Z,55.38
2022-12-17T14:09:25.157Z,54.08
2022-12-17T14:14:31.691Z,60.38
2022-12-17T14:19:34.527Z,55.60
2022-12-17T14:24:35.623Z,52.97
2022-12-17T14:29:47.537Z,55.53
2022-12-17T14:34:48.387Z,48.13
2022-12-17T14:39:50.132Z,49.50
2022-12-17T14:44:54.743Z,56.67
2022-12-17T14:50:08.102Z,41.88
2022-12-17T14:55:28.105Z,47.17
2022-12-17T15:00:30.308Z,51.15
2022-12-17T15:05:31.092Z,49.25
2022-12-17T15:10:31.940Z,47.67
2022-12-17T15:15:34.166Z,54.40
2022-12-17T15:20:34.984Z,48.25
2022-12-17T15:25:41.804Z,48.33
2022-12-17T15:30:48.414Z,54.58
2022-12-17T15:35:49.288Z,46.35
2022-12-17T15:40:50.073Z,42.50
2022-12-17T15:45:53.237Z,51.50
2022-12-17T15:50:54.034Z,46.40
2022-12-17T15:56:00.514Z,44.97
2022-12-17T16:01:06.769Z,46.00
2022-12-17T16:06:07.842Z,49.33
2022-12-17T16:11:09.766Z,54.78
2022-12-17T16:16:12.008Z,56.92
2022-12-17T16:21:12.804Z,62.47
2022-12-17T16:26:13.611Z,53.63
2022-12-17T16:31:17.243Z,48.53
2022-12-17T16:36:20.829Z,52.97
2022-12-17T16:41:22.503Z,49.80
2022-12-17T16:46:28.252Z,56.28
2022-12-17T16:51:29.785Z,52.88
2022-12-17T16:56:33.887Z,52.35
2022-12-17T17:01:41.528Z,59.65
2022-12-17T17:06:45.111Z,61.03
2022-12-17T17:11:51.159Z,55.50
2022-12-17T17:16:54.322Z,56.85
2022-12-17T17:21:55.659Z,57.72
2022-12-17T17:26:56.897Z,60.25
2022-12-17T17:32:10.619Z,61.00
2022-12-17T17:37:12.056Z,55.88
2022-12-17T17:42:12.875Z,56.90
2022-12-17T17:47:15.083Z,47.20
2022-12-17T17:52:15.881Z,48.58
2022-12-17T17:57:16.677Z,53.15
2022-12-17T18:02:18.959Z,47.70
2022-12-17T18:07:27.960Z,54.33
2022-12-17T18:12:46.973Z,56.33
2022-12-17T18:17:52.072Z,53.47
2022-12-17T18:22:52.917Z,52.53
2022-12-17T18:27:54.296Z,54.80
2022-12-17T18:32:57.263Z,54.13
2022-12-17T18:37:58.508Z,61.75
2022-12-17T18:43:18.367Z,54.15
2022-12-17T18:48:21.135Z,57.20
2022-12-17T18:53:23.394Z,52.90
2022-12-17T18:58:24.180Z,54.80
2022-12-17T19:03:26.471Z,47.88
2022-12-17T19:08:27.307Z,53.17
2022-12-17T19:13:28.137Z,54.92
2022-12-17T19:18:30.422Z,52.90
2022-12-17T19:23:33.606Z,53.97
2022-12-17T19:28:34.870Z,55.05
2022-12-17T19:33:37.657Z,55.78
2022-12-17T19:38:38.890Z,60.97
2022-12-17T19:43:40.057Z,52.72
2022-12-17T19:48:48.233Z,58.58
2022-12-17T19:53:51.622Z,60.20
2022-12-17T19:58:53.931Z,67.90
2022-12-17T20:03:57.031Z,68.55
2022-12-17T20:08:59.519Z,70.80
2022-12-17T20:14:02.103Z,66.82
2022-12-17T20:19:05.905Z,67.13
2022-12-17T20:24:07.631Z,64.50
2022-12-17T20:29:09.424Z,63.08
2022-12-17T20:34:14.720Z,59.42
2022-12-17T20:39:15.623Z,61.45
2022-12-17T20:44:16.550Z,60.45
2022-12-17T20:49:18.906Z,65.35
2022-12-17T20:54:19.861Z,59.65
2022-12-17T20:59:20.758Z,66.90
2022-12-17T21:04:22.957Z,70.20
2022-12-17T21:09:25.398Z,75.85
2022-12-17T21:14:29.218Z,77.47
2022-12-17T21:19:35.984Z,85.47
2022-12-17T21:24:37.472Z,82.35
2022-12-17T21:29:38.392Z,83.00
2022-12-17T21:34:40.828Z,80.13
2022-12-17T21:39:42.189Z,91.28
2022-12-17T21:44:43.055Z,95.32
2022-12-17T21:49:45.450Z,94.72
2022-12-17T21:54:47.466Z,89.03
2022-12-17T21:59:48.278Z,86.63
2022-12-17T22:04:51.484Z,88.63
2022-12-17T22:10:18.912Z,84.43
2022-12-17T22:15:13.282Z,80.32
2022-12-17T22:20:17.450Z,80.20
2022-12-17T22:25:18.696Z,80.10
2022-12-17T22:30:37.319Z,79.45
2022-12-17T22:37:37.680Z,77.55
2022-12-17T22:44:29.615Z,85.90
2022-12-17T22:46:29.014Z,79.00
2022-12-17T22:51:35.578Z,87.40
2022-12-17T22:57:34.995Z,73.43
2022-12-17T23:02:02.718Z,81.80
2022-12-17T23:07:04.980Z,88.78
2022-12-17T23:12:20.025Z,80.95
2022-12-17T23:17:20.861Z,74.03
2022-12-17T23:22:22.986Z,78.30
2022-12-17T23:27:23.869Z,84.20
2022-12-17T23:32:24.652Z,75.20
2022-12-17T23:37:26.853Z,71.78
2022-12-17T23:42:27.669Z,85.78
2022-12-17T23:47:28.761Z,95.80
2022-12-17T23:52:31.424Z,100.47
2022-12-17T23:57:32.223Z,95.82
